Aviation Digital Data Service (ADDS)

Output produced by METARs form (1112 UTC 17 June 2019)
found at http://www.aviationweather.gov/metar/data/
 
Forecast for: ETMN (NORDHOLZ (GER-NA, DE)
Text: TAF ETMN 171011Z 1711/1720 22007KT 9999 NSW SCT040
Forecast period: 1100 to 2000 UTC 17 June 2019
Forecast type: FROM: standard forecast or significant change
Winds: from the SW (220 degrees) at 8 MPH (7 knots; 3.6 m/s)
Visibility: 6 or more miles 10+ km)
Ceiling: at least 12,000 feet AGL
Clouds: scattered clouds at 4000 feet AGL
Weather: NSW  (no significant weather)